createdAt,value
2023-03-07T00:00:14.456Z,6.50
2023-03-07T00:01:29.199Z,6.88
2023-03-07T00:02:31.681Z,7.57
2023-03-07T00:03:34.124Z,7.28
2023-03-07T00:04:36.443Z,7.75
2023-03-07T00:05:39.366Z,7.57
2023-03-07T00:06:41.652Z,7.35
2023-03-07T00:07:43.926Z,7.90
2023-03-07T00:08:50.350Z,7.82
2023-03-07T00:09:53.252Z,7.97
2023-03-07T00:10:55.488Z,9.48
2023-03-07T00:11:57.735Z,9.63
2023-03-07T00:13:00.036Z,11.45
2023-03-07T00:14:06.070Z,10.60
2023-03-07T00:15:10.199Z,9.40
2023-03-07T00:16:15.042Z,12.25
2023-03-07T00:17:17.394Z,13.60
2023-03-07T00:18:19.696Z,13.52
2023-03-07T00:19:21.990Z,13.25
2023-03-07T00:20:24.232Z,12.02
2023-03-07T00:21:31.352Z,12.70
2023-03-07T00:22:35.159Z,11.30
2023-03-07T00:23:39.919Z,13.18
2023-03-07T00:24:42.249Z,11.38
2023-03-07T00:25:44.472Z,12.73
2023-03-07T00:26:46.728Z,11.57
2023-03-07T00:27:48.956Z,11.25
2023-03-07T00:28:53.153Z,12.40
2023-03-07T00:29:55.409Z,12.70
2023-03-07T00:31:07.192Z,10.60
2023-03-07T00:32:09.468Z,10.60
2023-03-07T00:33:12.138Z,10.98
2023-03-07T00:34:14.412Z,12.73
2023-03-07T00:35:16.910Z,12.55
2023-03-07T00:36:21.919Z,12.85
2023-03-07T00:37:24.232Z,12.25
2023-03-07T00:38:27.964Z,12.68
2023-03-07T00:39:30.241Z,13.25
2023-03-07T00:40:32.539Z,14.50
2023-03-07T00:41:34.981Z,13.25
2023-03-07T00:42:37.313Z,13.20
2023-03-07T00:43:39.921Z,13.07
2023-03-07T00:44:42.210Z,13.68
2023-03-07T00:45:44.482Z,12.02
2023-03-07T00:46:46.894Z,12.00
2023-03-07T00:47:49.234Z,11.63
2023-03-07T00:48:51.869Z,10.80
2023-03-07T00:49:54.133Z,12.20
2023-03-07T00:50:57.153Z,13.98
2023-03-07T00:52:00.824Z,13.20
2023-03-07T00:53:04.508Z,11.23
2023-03-07T00:54:06.869Z,13.25
2023-03-07T00:55:10.134Z,11.07
2023-03-07T00:56:19.040Z,11.40
2023-03-07T00:57:21.254Z,11.85
2023-03-07T00:58:23.986Z,10.75
2023-03-07T00:59:26.449Z,13.57
2023-03-07T01:00:29.299Z,15.35
2023-03-07T01:01:31.900Z,15.32
2023-03-07T01:02:34.279Z,15.32
2023-03-07T01:03:36.934Z,16.33
2023-03-07T01:04:39.260Z,17.05
2023-03-07T01:05:42.118Z,16.67
2023-03-07T01:06:44.555Z,15.07
2023-03-07T01:07:46.786Z,14.80
2023-03-07T01:08:49.091Z,13.93
2023-03-07T01:09:53.232Z,12.75
2023-03-07T01:10:59.781Z,13.05
2023-03-07T01:12:03.094Z,13.77
2023-03-07T01:13:05.921Z,13.55
2023-03-07T01:14:11.015Z,14.40
2023-03-07T01:15:13.403Z,14.15
2023-03-07T01:16:20.254Z,14.75
2023-03-07T01:17:22.557Z,13.60
2023-03-07T01:18:24.948Z,13.50
2023-03-07T01:19:27.235Z,14.13
2023-03-07T01:20:35.390Z,15.05
2023-03-07T01:21:39.985Z,11.77
2023-03-07T01:22:42.249Z,12.68
2023-03-07T01:23:45.008Z,13.70
2023-03-07T01:24:47.358Z,15.18
2023-03-07T01:25:50.346Z,15.50
2023-03-07T01:26:53.173Z,12.90
2023-03-07T01:27:56.891Z,14.10
2023-03-07T01:29:05.069Z,17.05
2023-03-07T01:30:11.057Z,15.50
2023-03-07T01:31:14.748Z,15.80
2023-03-07T01:32:17.136Z,16.25
2023-03-07T01:33:19.561Z,16.85
2023-03-07T01:34:22.041Z,18.00
2023-03-07T01:35:27.282Z,18.95
2023-03-07T01:36:34.089Z,17.20
2023-03-07T01:37:39.068Z,18.60
2023-03-07T01:38:43.063Z,19.23
2023-03-07T01:39:46.321Z,17.27
2023-03-07T01:40:52.093Z,15.95
2023-03-07T01:41:55.207Z,16.98
2023-03-07T01:43:22.390Z,18.17
2023-03-07T01:44:26.778Z,16.52
2023-03-07T01:46:04.293Z,16.65
2023-03-07T01:47:06.780Z,18.33
2023-03-07T01:48:22.790Z,18.08
2023-03-07T01:49:54.594Z,19.33
2023-03-07T01:50:57.056Z,17.35
2023-03-07T01:52:15.704Z,18.05
2023-03-07T01:53:21.952Z,17.88
2023-03-07T01:54:26.251Z,17.58
2023-03-07T01:55:34.294Z,19.05
2023-03-07T01:56:47.289Z,16.63
2023-03-07T01:57:52.286Z,18.25
2023-03-07T01:58:55.442Z,18.42
2023-03-07T02:00:01.302Z,19.92
2023-03-07T02:01:04.141Z,18.48
2023-03-07T02:02:14.084Z,19.13
2023-03-07T02:03:26.500Z,18.52
2023-03-07T02:04:38.973Z,16.98
2023-03-07T02:05:47.648Z,20.05
2023-03-07T02:06:49.977Z,16.30
2023-03-07T02:07:54.134Z,20.05
2023-03-07T02:09:01.977Z,17.52
2023-03-07T02:10:06.511Z,20.63
2023-03-07T02:11:09.056Z,18.65
2023-03-07T02:12:11.710Z,18.48
2023-03-07T02:13:14.188Z,19.75
2023-03-07T02:14:17.031Z,20.38
2023-03-07T02:15:19.484Z,19.85
2023-03-07T02:16:21.929Z,19.67
2023-03-07T02:17:24.949Z,22.30
2023-03-07T02:18:30.671Z,25.17
2023-03-07T02:19:59.921Z,24.45
2023-03-07T02:21:15.705Z,21.10
2023-03-07T02:22:19.386Z,21.23
2023-03-07T02:23:49.794Z,20.05
2023-03-07T02:25:10.643Z,20.52
2023-03-07T02:26:31.055Z,19.40
2023-03-07T02:27:36.305Z,20.38
2023-03-07T02:28:42.405Z,20.20
2023-03-07T02:29:45.411Z,21.45
2023-03-07T02:31:01.529Z,22.95
2023-03-07T02:32:08.171Z,21.45
2023-03-07T02:33:10.528Z,21.45
2023-03-07T02:34:28.696Z,21.17
2023-03-07T02:35:40.769Z,22.10
2023-03-07T02:36:43.067Z,21.02
2023-03-07T02:37:59.788Z,21.38
2023-03-07T02:39:06.949Z,22.23
2023-03-07T02:40:14.481Z,23.52
2023-03-07T02:41:21.045Z,21.65
2023-03-07T02:42:28.591Z,21.73
2023-03-07T02:43:39.855Z,20.58
2023-03-07T02:44:46.043Z,22.27
2023-03-07T02:45:49.016Z,22.02
2023-03-07T02:46:51.684Z,21.95
2023-03-07T02:47:55.255Z,22.73
2023-03-07T02:48:57.621Z,25.25
2023-03-07T02:49:59.953Z,20.95
2023-03-07T02:51:02.613Z,22.88
2023-03-07T02:52:05.416Z,20.70
2023-03-07T02:53:07.801Z,21.08
2023-03-07T02:54:11.628Z,21.13
2023-03-07T02:55:14.068Z,20.75
2023-03-07T02:56:22.675Z,22.40
2023-03-07T02:57:25.137Z,21.73
2023-03-07T02:58:27.429Z,21.38
2023-03-07T02:59:29.732Z,20.30
2023-03-07T03:00:32.173Z,21.63
2023-03-07T03:01:34.762Z,21.58
2023-03-07T03:02:37.042Z,20.48
2023-03-07T03:03:39.255Z,20.75
2023-03-07T03:04:41.672Z,20.73
2023-03-07T03:05:43.965Z,21.73
2023-03-07T03:06:46.330Z,19.88
2023-03-07T03:07:50.147Z,21.40
2023-03-07T03:08:52.425Z,21.95
2023-03-07T03:09:54.729Z,21.67
2023-03-07T03:10:57.290Z,19.45
2023-03-07T03:12:01.630Z,20.70
2023-03-07T03:13:06.400Z,19.80
2023-03-07T03:14:08.941Z,18.75
2023-03-07T03:15:13.012Z,17.85
2023-03-07T03:16:15.347Z,16.88
2023-03-07T03:17:17.733Z,17.27
2023-03-07T03:18:20.079Z,16.33
2023-03-07T03:19:22.482Z,17.70
2023-03-07T03:20:25.878Z,19.05
2023-03-07T03:21:28.496Z,18.70
2023-03-07T03:22:30.859Z,17.55
2023-03-07T03:23:33.247Z,20.25
2023-03-07T03:24:41.159Z,19.35
2023-03-07T03:25:45.218Z,17.27
2023-03-07T03:26:47.594Z,17.73
2023-03-07T03:27:51.178Z,19.58
2023-03-07T03:28:54.601Z,18.27
2023-03-07T03:29:56.895Z,17.70
2023-03-07T03:31:04.858Z,17.85
2023-03-07T03:32:08.077Z,18.23
2023-03-07T03:33:10.416Z,19.23
2023-03-07T03:34:13.164Z,19.67
2023-03-07T03:35:15.598Z,20.48
2023-03-07T03:36:18.666Z,18.92
2023-03-07T03:37:24.163Z,20.17
2023-03-07T03:38:26.925Z,19.52
2023-03-07T03:39:30.725Z,22.23
2023-03-07T03:40:38.411Z,17.50
2023-03-07T03:41:41.237Z,17.75
2023-03-07T03:42:44.564Z,18.63
2023-03-07T03:43:48.724Z,18.05
2023-03-07T03:44:51.220Z,18.42
2023-03-07T03:45:56.896Z,18.90
2023-03-07T03:47:01.156Z,18.20
2023-03-07T03:48:03.602Z,20.00
2023-03-07T03:49:06.014Z,18.70
2023-03-07T03:50:09.974Z,21.10
2023-03-07T03:51:14.746Z,17.30
2023-03-07T03:52:17.084Z,16.55
2023-03-07T03:53:19.320Z,16.70
2023-03-07T03:54:21.871Z,17.83
2023-03-07T03:55:24.291Z,20.77
2023-03-07T03:56:27.465Z,18.60
2023-03-07T03:57:29.739Z,19.10
2023-03-07T03:58:32.407Z,20.05
2023-03-07T03:59:34.746Z,18.63
2023-03-07T04:00:37.073Z,19.10
2023-03-07T04:01:39.362Z,19.73
2023-03-07T04:02:42.441Z,22.48
2023-03-07T04:03:51.249Z,18.63
2023-03-07T04:04:53.606Z,18.40
2023-03-07T04:06:01.829Z,19.13
2023-03-07T04:07:04.837Z,18.23
2023-03-07T04:08:07.990Z,21.20
2023-03-07T04:09:11.684Z,22.00
2023-03-07T04:10:17.995Z,19.77
2023-03-07T04:11:21.623Z,20.02
2023-03-07T04:12:23.934Z,19.80
2023-03-07T04:13:26.438Z,21.58
2023-03-07T04:14:28.677Z,20.17
2023-03-07T04:15:31.287Z,19.90
2023-03-07T04:16:33.635Z,21.60
2023-03-07T04:17:36.189Z,19.00
2023-03-07T04:18:40.169Z,19.55
2023-03-07T04:19:42.562Z,18.13
2023-03-07T04:20:45.274Z,18.45
2023-03-07T04:21:47.593Z,18.92
2023-03-07T04:22:51.770Z,19.08
2023-03-07T04:23:57.172Z,19.38
2023-03-07T04:25:01.395Z,18.30
2023-03-07T04:26:06.599Z,17.92
2023-03-07T04:27:09.067Z,17.63
2023-03-07T04:28:12.741Z,17.20
2023-03-07T04:29:15.042Z,19.80
2023-03-07T04:30:19.152Z,17.02
2023-03-07T04:31:24.124Z,18.55
2023-03-07T04:32:26.897Z,17.95
2023-03-07T04:33:29.249Z,19.73
2023-03-07T04:34:31.545Z,18.80
2023-03-07T04:35:33.900Z,18.35
2023-03-07T04:36:36.345Z,19.60
2023-03-07T04:37:38.630Z,17.67
2023-03-07T04:38:42.319Z,21.08
2023-03-07T04:39:44.632Z,19.55
2023-03-07T04:40:47.122Z,20.63
2023-03-07T04:41:49.401Z,21.13
2023-03-07T04:42:56.200Z,18.63
2023-03-07T04:43:58.452Z,19.20
2023-03-07T04:45:02.346Z,19.98
2023-03-07T04:46:07.368Z,17.30
2023-03-07T04:47:09.697Z,18.58
2023-03-07T04:48:12.818Z,19.75
2023-03-07T04:49:15.790Z,19.63
2023-03-07T04:50:19.679Z,20.15
2023-03-07T04:51:22.965Z,21.42
2023-03-07T04:52:25.776Z,20.42
2023-03-07T04:53:30.095Z,18.40
2023-03-07T04:54:33.286Z,20.58
2023-03-07T04:55:37.104Z,21.45
2023-03-07T04:56:40.730Z,18.52
2023-03-07T04:57:46.718Z,19.30
2023-03-07T04:58:49.732Z,20.08
2023-03-07T04:59:53.727Z,19.10
2023-03-07T05:00:58.215Z,18.65
2023-03-07T05:02:01.649Z,19.27
2023-03-07T05:03:07.283Z,19.35
2023-03-07T05:04:09.911Z,18.60
2023-03-07T05:05:14.525Z,20.75
2023-03-07T05:06:18.066Z,20.63
2023-03-07T05:07:27.721Z,21.30
2023-03-07T05:08:30.312Z,19.67
2023-03-07T05:09:32.760Z,21.83
2023-03-07T05:10:36.642Z,20.88
2023-03-07T05:11:39.767Z,20.48
2023-03-07T05:12:43.349Z,21.67
2023-03-07T05:13:47.009Z,22.27
2023-03-07T05:14:52.559Z,22.95
2023-03-07T05:15:56.832Z,19.13
2023-03-07T05:16:59.759Z,20.90
2023-03-07T05:18:02.352Z,21.27
2023-03-07T05:19:06.178Z,21.13
2023-03-07T05:20:10.882Z,20.20
2023-03-07T05:21:13.300Z,20.80
2023-03-07T05:22:15.766Z,21.70
2023-03-07T05:23:19.927Z,20.48
2023-03-07T05:24:24.110Z,21.17
2023-03-07T05:25:26.396Z,19.77
2023-03-07T05:26:28.784Z,21.20
2023-03-07T05:27:31.094Z,22.00
2023-03-07T05:28:34.196Z,20.38
2023-03-07T05:29:36.436Z,19.92
2023-03-07T05:30:38.872Z,21.00
2023-03-07T05:31:41.276Z,20.98
2023-03-07T05:32:44.143Z,22.13
2023-03-07T05:33:48.693Z,20.75
2023-03-07T05:34:51.337Z,22.40
2023-03-07T05:35:59.822Z,20.98
2023-03-07T05:37:02.247Z,19.58
2023-03-07T05:38:04.502Z,19.75
2023-03-07T05:39:07.753Z,21.42
2023-03-07T05:40:11.976Z,20.52
2023-03-07T05:41:18.055Z,19.95
2023-03-07T05:42:20.419Z,23.17
2023-03-07T05:43:23.858Z,21.20
2023-03-07T05:44:27.316Z,20.63
2023-03-07T05:45:31.205Z,19.33
2023-03-07T05:46:35.486Z,21.10
2023-03-07T05:47:39.111Z,22.70
2023-03-07T05:48:43.616Z,22.95
2023-03-07T05:49:45.962Z,20.88
2023-03-07T05:50:49.030Z,20.60
2023-03-07T05:51:52.931Z,20.58
2023-03-07T05:52:56.435Z,19.98
2023-03-07T05:54:01.739Z,18.63
2023-03-07T05:55:05.160Z,21.25
2023-03-07T05:56:08.478Z,21.25
2023-03-07T05:57:12.249Z,19.92
2023-03-07T05:58:15.861Z,20.58
2023-03-07T05:59:20.737Z,20.10
2023-03-07T06:00:25.473Z,20.33
2023-03-07T06:01:35.405Z,21.92
2023-03-07T06:02:37.730Z,22.00
2023-03-07T06:03:40.208Z,21.83
2023-03-07T06:04:42.528Z,21.00
2023-03-07T06:05:44.873Z,21.70
2023-03-07T06:06:47.158Z,22.15
2023-03-07T06:07:50.253Z,19.15
2023-03-07T06:08:52.511Z,18.60
2023-03-07T06:09:54.764Z,19.75
2023-03-07T06:10:57.065Z,19.60
2023-03-07T06:12:00.233Z,21.17
2023-03-07T06:13:02.471Z,18.73
2023-03-07T06:14:05.131Z,19.80
2023-03-07T06:15:08.958Z,20.35
2023-03-07T06:16:11.789Z,18.95
2023-03-07T06:17:16.198Z,18.58
2023-03-07T06:18:19.113Z,22.42
2023-03-07T06:19:21.475Z,21.13
2023-03-07T06:20:24.883Z,20.33
2023-03-07T06:21:30.557Z,18.88
2023-03-07T06:22:34.834Z,19.92
2023-03-07T06:23:38.345Z,19.27
2023-03-07T06:24:45.600Z,21.00
2023-03-07T06:25:48.045Z,19.45
2023-03-07T06:26:50.373Z,17.65
2023-03-07T06:28:00.828Z,19.15
2023-03-07T06:29:04.908Z,20.27
2023-03-07T06:30:09.338Z,20.88
2023-03-07T06:31:14.848Z,19.77
2023-03-07T06:32:17.570Z,19.40
2023-03-07T06:33:20.171Z,20.73
2023-03-07T06:34:22.468Z,19.63
2023-03-07T06:35:24.758Z,19.00
2023-03-07T06:36:27.080Z,18.15
2023-03-07T06:37:35.171Z,17.92
2023-03-07T06:38:39.152Z,19.20
2023-03-07T06:39:41.612Z,18.40
2023-03-07T06:40:44.100Z,20.00
2023-03-07T06:41:49.690Z,18.23
2023-03-07T06:42:53.793Z,16.40
2023-03-07T06:43:56.167Z,18.27
2023-03-07T06:45:05.816Z,19.10
2023-03-07T06:46:08.847Z,19.90
2023-03-07T06:47:14.872Z,18.00
2023-03-07T06:48:18.302Z,18.05
2023-03-07T06:49:20.603Z,20.08
2023-03-07T06:50:34.694Z,18.95
2023-03-07T06:51:38.179Z,18.40
2023-03-07T06:52:41.781Z,18.20
2023-03-07T06:53:44.453Z,16.75
2023-03-07T06:54:46.805Z,17.08
2023-03-07T06:55:50.899Z,17.80
2023-03-07T06:56:53.322Z,17.80
2023-03-07T06:57:57.760Z,17.00
2023-03-07T06:59:00.106Z,17.05
2023-03-07T07:00:04.417Z,17.15
2023-03-07T07:01:14.964Z,15.43
2023-03-07T07:02:17.392Z,15.23
2023-03-07T07:03:20.569Z,16.33
2023-03-07T07:04:23.136Z,16.25
2023-03-07T07:05:26.322Z,17.42
2023-03-07T07:06:28.674Z,16.45
2023-03-07T07:07:31.304Z,16.77
2023-03-07T07:08:34.449Z,15.32
2023-03-07T07:09:37.467Z,16.33
2023-03-07T07:10:39.826Z,16.10
2023-03-07T07:11:42.354Z,15.48
2023-03-07T07:12:47.493Z,15.55
2023-03-07T07:13:50.791Z,15.80
2023-03-07T07:14:55.015Z,13.40
2023-03-07T07:15:58.712Z,16.45
2023-03-07T07:17:01.387Z,16.30
2023-03-07T07:18:03.978Z,14.88
2023-03-07T07:19:09.369Z,16.02
2023-03-07T07:20:12.231Z,14.40
2023-03-07T07:21:16.515Z,14.40
2023-03-07T07:22:18.808Z,15.43
2023-03-07T07:23:21.100Z,15.63
2023-03-07T07:24:23.880Z,14.90
2023-03-07T07:25:27.843Z,12.80
2023-03-07T07:26:30.255Z,15.20
2023-03-07T07:27:36.613Z,14.32
2023-03-07T07:28:39.546Z,13.23
2023-03-07T07:29:44.006Z,13.15
2023-03-07T07:30:46.317Z,13.98
2023-03-07T07:31:51.030Z,12.55
2023-03-07T07:32:54.949Z,11.60
2023-03-07T07:33:58.235Z,15.02
2023-03-07T07:35:02.906Z,12.43
2023-03-07T07:36:07.351Z,13.93
2023-03-07T07:37:11.136Z,13.00
2023-03-07T07:38:14.076Z,12.98
2023-03-07T07:39:17.684Z,13.50
2023-03-07T07:40:21.771Z,12.90
2023-03-07T07:41:24.447Z,13.30
2023-03-07T07:42:32.130Z,13.35
2023-03-07T07:43:41.910Z,14.00
2023-03-07T07:44:51.341Z,13.02
2023-03-07T07:45:53.884Z,12.98
2023-03-07T07:46:57.188Z,12.43
2023-03-07T07:47:59.521Z,14.88
2023-03-07T07:49:01.772Z,13.18
2023-03-07T07:50:04.587Z,13.20
2023-03-07T07:51:09.864Z,14.23
2023-03-07T07:52:13.326Z,14.68
2023-03-07T07:53:17.964Z,13.90
2023-03-07T07:54:21.312Z,11.80
2023-03-07T07:55:25.152Z,13.00
2023-03-07T07:56:27.695Z,12.55
2023-03-07T07:57:29.986Z,12.38
2023-03-07T07:58:33.779Z,13.40
2023-03-07T07:59:38.047Z,12.63
2023-03-07T08:00:42.602Z,11.50
2023-03-07T08:01:45.321Z,11.85
2023-03-07T08:02:51.438Z,12.15
2023-03-07T08:03:53.993Z,11.82
2023-03-07T08:04:56.645Z,11.65
2023-03-07T08:05:58.947Z,11.48
2023-03-07T08:07:01.228Z,10.77
2023-03-07T08:08:03.587Z,12.98
2023-03-07T08:09:05.876Z,14.88
2023-03-07T08:10:09.043Z,13.18
2023-03-07T08:11:11.338Z,11.63
2023-03-07T08:12:13.936Z,12.13
2023-03-07T08:13:17.806Z,12.40
2023-03-07T08:14:20.418Z,12.40
2023-03-07T08:15:22.772Z,11.52
2023-03-07T08:16:25.056Z,11.65
2023-03-07T08:17:29.449Z,10.27
2023-03-07T08:18:31.690Z,11.20
2023-03-07T08:19:33.946Z,11.15
2023-03-07T08:20:37.955Z,11.55
2023-03-07T08:21:40.510Z,10.65
2023-03-07T08:22:44.063Z,10.80
2023-03-07T08:23:46.486Z,11.43
2023-03-07T08:24:50.800Z,11.65
2023-03-07T08:25:53.721Z,11.20
2023-03-07T08:26:56.002Z,9.52
2023-03-07T08:27:58.969Z,9.85
2023-03-07T08:29:01.274Z,10.50
2023-03-07T08:30:03.962Z,10.13
2023-03-07T08:31:20.491Z,11.30
2023-03-07T08:32:23.038Z,10.25
2023-03-07T08:33:25.396Z,10.10
2023-03-07T08:34:27.651Z,10.02
2023-03-07T08:35:31.957Z,10.77
2023-03-07T08:36:34.291Z,10.35
2023-03-07T08:37:36.675Z,10.65
2023-03-07T08:38:38.980Z,10.75
2023-03-07T08:39:41.562Z,9.90
2023-03-07T08:40:43.839Z,10.88
2023-03-07T08:41:46.153Z,11.48
2023-03-07T08:42:48.396Z,11.15
2023-03-07T08:43:51.042Z,9.82
2023-03-07T08:44:53.278Z,10.07
2023-03-07T08:45:56.407Z,9.80
2023-03-07T08:46:58.780Z,11.00
2023-03-07T08:48:01.036Z,11.15
2023-03-07T08:49:03.491Z,10.02
2023-03-07T08:50:06.196Z,10.75
2023-03-07T08:51:11.383Z,10.60
2023-03-07T08:52:13.733Z,10.10
2023-03-07T08:53:16.628Z,10.50
2023-03-07T08:54:19.184Z,10.35
2023-03-07T08:55:21.486Z,9.48
2023-03-07T08:56:23.798Z,9.27
2023-03-07T08:57:26.069Z,10.70
2023-03-07T08:58:28.313Z,9.23
2023-03-07T08:59:30.632Z,9.10
2023-03-07T09:00:32.940Z,9.10
2023-03-07T09:01:35.379Z,9.25
2023-03-07T09:02:37.755Z,9.10
2023-03-07T09:03:39.996Z,9.50
2023-03-07T09:04:42.431Z,9.32
2023-03-07T09:05:44.871Z,8.93
2023-03-07T09:06:47.389Z,10.10
2023-03-07T09:07:49.680Z,8.70
2023-03-07T09:08:51.991Z,9.18
2023-03-07T09:09:54.289Z,9.25
2023-03-07T09:11:00.745Z,10.30
2023-03-07T09:12:03.385Z,9.35
2023-03-07T09:13:05.768Z,9.15
2023-03-07T09:14:08.098Z,9.00
2023-03-07T09:15:10.718Z,10.50
2023-03-07T09:16:13.096Z,9.85
2023-03-07T09:17:16.010Z,8.85
2023-03-07T09:18:18.751Z,8.88
2023-03-07T09:19:21.224Z,9.90
2023-03-07T09:20:23.714Z,9.68
2023-03-07T09:21:26.115Z,9.23
2023-03-07T09:22:28.486Z,8.50
2023-03-07T09:23:30.873Z,9.73
2023-03-07T09:24:33.236Z,8.98
2023-03-07T09:25:37.036Z,8.82
2023-03-07T09:26:39.299Z,8.10
2023-03-07T09:27:42.375Z,8.85
2023-03-07T09:28:44.794Z,8.13
2023-03-07T09:29:47.562Z,7.90
2023-03-07T09:30:49.848Z,7.85
2023-03-07T09:31:52.100Z,8.55
2023-03-07T09:32:54.643Z,8.63
2023-03-07T09:33:57.408Z,8.18
2023-03-07T09:34:59.681Z,9.27
2023-03-07T09:36:12.944Z,9.02
2023-03-07T09:37:15.322Z,9.68
2023-03-07T09:38:17.955Z,8.15
2023-03-07T09:39:20.440Z,10.07
2023-03-07T09:40:25.837Z,9.35
2023-03-07T09:41:31.825Z,8.88
2023-03-07T09:42:51.845Z,7.85
2023-03-07T09:44:23.211Z,8.60
2023-03-07T09:46:18.016Z,8.18
2023-03-07T09:48:03.302Z,8.07
2023-03-07T09:49:18.384Z,8.23
2023-03-07T09:50:32.053Z,8.10
2023-03-07T09:51:40.880Z,8.30
2023-03-07T09:52:44.040Z,8.32
2023-03-07T09:54:00.175Z,8.80
2023-03-07T09:55:17.747Z,9.25
2023-03-07T09:56:54.369Z,8.35
2023-03-07T09:58:00.658Z,7.68
2023-03-07T09:59:22.097Z,8.60
2023-03-07T10:00:36.556Z,8.73
2023-03-07T10:01:41.268Z,7.80
2023-03-07T10:03:15.307Z,8.57
2023-03-07T10:04:33.209Z,7.85
2023-03-07T10:05:43.064Z,8.23
2023-03-07T10:06:51.547Z,7.85
2023-03-07T10:07:55.006Z,8.70
2023-03-07T10:08:59.824Z,9.25
2023-03-07T10:10:06.758Z,7.68
2023-03-07T10:11:08.991Z,7.80
2023-03-07T10:12:26.473Z,7.75
2023-03-07T10:13:52.910Z,8.38
2023-03-07T10:15:16.342Z,7.95
2023-03-07T10:16:32.943Z,8.13
2023-03-07T10:17:57.287Z,6.93
2023-03-07T10:19:24.576Z,7.20
2023-03-07T10:20:42.642Z,7.78
2023-03-07T10:21:58.302Z,8.55
2023-03-07T10:23:37.801Z,7.93
2023-03-07T10:24:48.219Z,7.28
2023-03-07T10:26:14.780Z,8.50
2023-03-07T10:27:17.932Z,8.73
2023-03-07T10:28:28.290Z,8.70
2023-03-07T10:29:58.541Z,8.30
2023-03-07T10:31:17.100Z,7.70
2023-03-07T10:32:34.979Z,8.23
2023-03-07T10:33:40.457Z,7.60
2023-03-07T10:34:42.829Z,7.65
2023-03-07T10:35:55.721Z,7.78
2023-03-07T10:37:20.862Z,7.50
2023-03-07T10:38:36.560Z,8.07
2023-03-07T10:39:55.514Z,7.38
2023-03-07T10:41:06.940Z,7.28
2023-03-07T10:42:14.873Z,7.40
2023-03-07T10:43:33.440Z,6.47
2023-03-07T10:44:36.515Z,6.97
2023-03-07T10:45:39.095Z,7.50
2023-03-07T10:46:47.048Z,8.20
2023-03-07T10:47:58.506Z,7.68
2023-03-07T10:49:09.806Z,7.57
2023-03-07T10:50:35.889Z,8.07
2023-03-07T10:51:53.966Z,6.68
2023-03-07T10:52:58.262Z,7.35
2023-03-07T10:54:01.132Z,7.43
2023-03-07T10:55:38.919Z,7.20
2023-03-07T10:56:41.208Z,6.20
2023-03-07T10:57:43.511Z,7.40
2023-03-07T10:59:05.924Z,6.53
2023-03-07T11:00:18.214Z,6.53
2023-03-07T11:01:21.004Z,6.93
2023-03-07T11:02:37.885Z,6.63
2023-03-07T11:04:00.020Z,6.30
2023-03-07T11:05:18.022Z,6.20
2023-03-07T11:06:35.144Z,5.30
2023-03-07T11:07:37.533Z,4.95
2023-03-07T11:08:45.386Z,4.68
2023-03-07T11:09:48.128Z,5.60
2023-03-07T11:10:51.000Z,3.65
2023-03-07T11:12:10.481Z,3.70
2023-03-07T11:13:21.209Z,3.63
2023-03-07T11:14:24.927Z,3.53
2023-03-07T11:15:27.665Z,4.10
2023-03-07T11:16:30.087Z,3.60
2023-03-07T11:17:44.082Z,3.20
2023-03-07T11:18:46.971Z,3.20
2023-03-07T11:19:56.519Z,3.00
2023-03-07T11:20:59.321Z,3.00
2023-03-07T11:22:06.199Z,3.30
2023-03-07T11:23:19.709Z,3.05
2023-03-07T11:24:28.997Z,3.45
2023-03-07T11:25:36.380Z,3.40
2023-03-07T11:26:40.708Z,3.72
2023-03-07T11:27:45.870Z,3.53
2023-03-07T11:29:03.411Z,4.15
2023-03-07T11:30:35.786Z,3.22
2023-03-07T11:31:42.742Z,3.45
2023-03-07T11:33:26.816Z,3.83
2023-03-07T11:34:51.215Z,3.47
2023-03-07T11:36:00.115Z,3.85
2023-03-07T11:37:26.792Z,3.35
2023-03-07T11:38:45.032Z,4.43
2023-03-07T11:39:59.721Z,3.83
2023-03-07T11:41:33.055Z,3.80
2023-03-07T11:42:50.474Z,4.43
2023-03-07T11:44:36.391Z,3.90
2023-03-07T11:46:12.866Z,4.00
2023-03-07T11:47:38.327Z,4.75
2023-03-07T11:48:47.945Z,3.80
2023-03-07T11:50:02.176Z,4.57
2023-03-07T11:51:09.630Z,4.35
2023-03-07T11:52:30.598Z,3.92
2023-03-07T11:53:42.155Z,3.70
2023-03-07T11:55:03.601Z,4.95
2023-03-07T11:56:41.070Z,3.75
2023-03-07T11:57:50.882Z,5.65
2023-03-07T11:59:19.382Z,3.67
2023-03-07T12:00:46.013Z,4.32
2023-03-07T12:01:57.437Z,3.67
2023-03-07T12:03:36.285Z,4.18
2023-03-07T12:05:15.683Z,3.90
2023-03-07T12:06:42.102Z,3.97
2023-03-07T12:08:03.269Z,4.60
2023-03-07T12:09:30.036Z,3.55
2023-03-07T12:11:01.990Z,3.55
2023-03-07T12:12:18.205Z,3.97
2023-03-07T12:13:54.715Z,4.65
2023-03-07T12:15:17.929Z,3.65
2023-03-07T12:16:32.388Z,3.90
2023-03-07T12:17:39.436Z,4.00
2023-03-07T12:19:12.941Z,4.30
2023-03-07T12:20:21.931Z,4.53
2023-03-07T12:21:39.469Z,4.32
2023-03-07T12:22:47.739Z,4.20
2023-03-07T12:23:59.548Z,5.07
2023-03-07T12:25:08.543Z,5.07
2023-03-07T12:26:27.261Z,4.18
2023-03-07T12:27:38.295Z,4.28
2023-03-07T12:28:48.612Z,4.03
2023-03-07T12:30:04.762Z,4.97
2023-03-07T12:31:24.509Z,5.35
2023-03-07T12:32:28.119Z,5.43
2023-03-07T12:33:59.015Z,5.25
2023-03-07T12:35:23.555Z,4.78
2023-03-07T12:36:28.734Z,4.88
2023-03-07T12:37:36.513Z,4.60
2023-03-07T12:38:52.757Z,4.88
2023-03-07T12:40:12.257Z,5.22
2023-03-07T12:41:29.684Z,4.80
2023-03-07T12:42:35.643Z,5.18
2023-03-07T12:43:44.561Z,6.13
2023-03-07T12:44:51.448Z,6.07
2023-03-07T12:46:39.972Z,5.97
2023-03-07T12:48:02.851Z,5.28
2023-03-07T12:49:14.091Z,5.20
2023-03-07T12:50:41.473Z,4.65
2023-03-07T12:51:49.116Z,3.55
2023-03-07T12:53:06.972Z,4.75
2023-03-07T12:54:18.703Z,4.85
2023-03-07T12:55:26.895Z,5.70
2023-03-07T12:57:01.845Z,4.20
2023-03-07T12:58:56.780Z,4.03
2023-03-07T13:00:05.653Z,4.43
2023-03-07T13:01:18.392Z,4.57
2023-03-07T13:02:27.262Z,5.00
2023-03-07T13:04:05.510Z,3.55
2023-03-07T13:05:18.893Z,4.00
2023-03-07T13:06:24.037Z,3.83
2023-03-07T13:07:27.693Z,3.50
2023-03-07T13:08:30.276Z,3.22
2023-03-07T13:09:33.495Z,2.85
2023-03-07T13:10:36.663Z,3.10
2023-03-07T13:12:07.613Z,3.03
2023-03-07T13:13:43.721Z,2.80
2023-03-07T13:14:47.478Z,3.10
2023-03-07T13:16:06.529Z,2.40
2023-03-07T13:17:14.257Z,3.38
2023-03-07T13:18:30.940Z,3.88
2023-03-07T13:19:36.289Z,3.78
2023-03-07T13:20:41.531Z,3.17
2023-03-07T13:21:44.067Z,3.00
2023-03-07T13:22:46.330Z,2.78
2023-03-07T13:23:48.689Z,2.75
2023-03-07T13:25:23.915Z,3.10
2023-03-07T13:26:27.758Z,2.67
2023-03-07T13:27:54.329Z,2.40
2023-03-07T13:28:57.649Z,1.90
2023-03-07T13:30:08.396Z,2.58
2023-03-07T13:31:28.276Z,2.55
2023-03-07T13:32:49.615Z,2.15
2023-03-07T13:33:51.965Z,2.30
2023-03-07T13:34:54.312Z,1.80
2023-03-07T13:35:59.301Z,2.40
2023-03-07T13:37:40.005Z,2.17
2023-03-07T13:38:46.643Z,2.40
2023-03-07T13:40:05.415Z,1.80
2023-03-07T13:41:11.189Z,2.00
2023-03-07T13:42:48.051Z,1.90
2023-03-07T13:43:53.316Z,2.55
2023-03-07T13:44:55.951Z,2.80
2023-03-07T13:46:06.075Z,2.42
2023-03-07T13:47:43.127Z,2.38
2023-03-07T13:48:48.765Z,2.30
2023-03-07T13:49:51.130Z,1.85
2023-03-07T13:50:56.140Z,2.22
2023-03-07T13:52:18.892Z,2.75
2023-03-07T13:53:32.063Z,2.58
2023-03-07T13:54:34.821Z,2.40
2023-03-07T13:55:46.414Z,2.63
2023-03-07T13:56:49.310Z,3.65
2023-03-07T13:57:52.343Z,2.20
2023-03-07T13:59:35.808Z,2.50
2023-03-07T14:00:47.317Z,2.55
2023-03-07T14:02:00.662Z,2.35
2023-03-07T14:03:03.489Z,2.50
2023-03-07T14:04:14.080Z,2.42
2023-03-07T14:05:17.278Z,1.70
2023-03-07T14:06:32.493Z,1.58
2023-03-07T14:07:39.898Z,2.10
2023-03-07T14:08:43.746Z,2.35
2023-03-07T14:09:59.108Z,1.92
2023-03-07T14:11:01.733Z,1.80
2023-03-07T14:12:31.298Z,2.28
2023-03-07T14:13:49.397Z,2.00
2023-03-07T14:15:09.749Z,1.65
2023-03-07T14:16:38.119Z,2.15
2023-03-07T14:17:55.718Z,2.00
2023-03-07T14:19:11.677Z,2.00
2023-03-07T14:20:55.353Z,1.70
2023-03-07T14:22:04.405Z,1.70
2023-03-07T14:23:37.532Z,2.53
2023-03-07T14:24:50.225Z,2.40
2023-03-07T14:26:16.154Z,1.83
2023-03-07T14:27:18.494Z,1.90
2023-03-07T14:28:27.048Z,2.00
2023-03-07T14:29:30.915Z,2.10
2023-03-07T14:30:34.023Z,1.80
2023-03-07T14:31:42.080Z,1.52
2023-03-07T14:32:44.553Z,2.05
2023-03-07T14:33:46.989Z,2.42
2023-03-07T14:34:49.597Z,2.53
2023-03-07T14:35:51.935Z,2.08
2023-03-07T14:37:05.924Z,1.65
2023-03-07T14:38:21.145Z,2.05
2023-03-07T14:39:27.355Z,1.83
2023-03-07T14:41:08.255Z,1.80